KUNU/UNU METAR and TAF weather

Enter ICAO airport designator
Station Type Date Time Source
KUNU METAR 2022/09/28 20:15 UTC NOAA

KUNU 282015Z AUTO 36006KT 10SM CLR 12/02 A3050 RMK AO2 T01170024


Station Type Date Time Source
KUNU Decoded METAR 2022/09/28 20:15 UTC NOAA

Juneau, Dodge County Airport, WI, United States (KUNU) 43-25-36N 088-42-12W
Sep 28, 2022 - 04:15 PM EDT / 2022.09.28 2015 UTC
Wind: from the N (360 degrees) at 7 MPH (6 KT):0
Visibility: 10 mile(s):0
Sky conditions: clear
Temperature: 53.1 F (11.7 C)
Dew Point: 36.3 F (2.4 C)
Relative Humidity: 52%
Pressure (altimeter): 30.5 in. Hg (1032 hPa)
ob: KUNU 282015Z AUTO 36006KT 10SM CLR 12/02 A3050 RMK AO2 T01170024
cycle: 20

Station Type Date Time Source
KUNU TAF UTC NOAA

Error!

Example: see airport list